createdAt,value
2022-12-08T00:01:11.784Z,-0.19
2022-12-08T00:03:39.575Z,-0.22
2022-12-08T00:06:25.720Z,-0.20
2022-12-08T00:09:11.303Z,-0.18
2022-12-08T00:11:39.626Z,-0.16
2022-12-08T00:14:06.565Z,-0.14
2022-12-08T00:16:33.595Z,-0.14
2022-12-08T00:19:00.605Z,-0.21
2022-12-08T00:21:29.068Z,-0.24
2022-12-08T00:23:57.431Z,-0.25
2022-12-08T00:26:24.443Z,-0.33
2022-12-08T00:28:51.465Z,-0.40
2022-12-08T00:31:18.496Z,-0.42
2022-12-08T00:33:45.625Z,-0.47
2022-12-08T00:36:14.119Z,-0.56
2022-12-08T00:38:41.785Z,-0.57
2022-12-08T00:41:15.428Z,-0.60
2022-12-08T00:43:42.660Z,-0.63
2022-12-08T00:46:10.135Z,-0.64
2022-12-08T00:48:37.091Z,-0.64
2022-12-08T00:51:04.182Z,-0.65
2022-12-08T00:53:32.180Z,-0.68
2022-12-08T00:55:59.176Z,-0.67
2022-12-08T00:58:26.060Z,-0.65
2022-12-08T01:00:53.185Z,-0.64
2022-12-08T01:03:20.289Z,-0.62
2022-12-08T01:05:47.334Z,-0.60
2022-12-08T01:08:14.372Z,-0.57
2022-12-08T01:10:41.312Z,-0.54
2022-12-08T01:13:08.295Z,-0.54
2022-12-08T01:15:35.225Z,-0.57
2022-12-08T01:18:02.203Z,-0.60
2022-12-08T01:20:29.202Z,-0.63
2022-12-08T01:22:56.073Z,-0.62
2022-12-08T01:25:23.062Z,-0.64
2022-12-08T01:27:52.382Z,-0.69
2022-12-08T01:30:20.140Z,-0.68
2022-12-08T01:32:47.492Z,-0.64
2022-12-08T01:35:14.666Z,-0.60
2022-12-08T01:37:41.602Z,-0.57
2022-12-08T01:40:09.089Z,-0.61
2022-12-08T01:42:38.334Z,-0.60
2022-12-08T01:45:08.371Z,-0.61
2022-12-08T01:47:43.543Z,-0.56
2022-12-08T01:50:12.164Z,-0.48
2022-12-08T01:52:47.353Z,-0.43
2022-12-08T01:55:24.067Z,-0.41
2022-12-08T01:57:57.312Z,-0.41
2022-12-08T02:00:24.920Z,-0.43
2022-12-08T02:03:01.415Z,-0.46
2022-12-08T02:05:31.901Z,-0.40
2022-12-08T02:08:00.411Z,-0.34
2022-12-08T02:10:33.013Z,-0.30
2022-12-08T02:13:00.820Z,-0.26
2022-12-08T02:16:03.016Z,-0.22
2022-12-08T02:19:07.978Z,-0.18
2022-12-08T02:21:56.892Z,-0.10
2022-12-08T02:24:48.403Z,-0.04
2022-12-08T02:27:34.130Z,0.04
2022-12-08T02:30:22.844Z,0.10
2022-12-08T02:33:14.832Z,0.13
2022-12-08T02:35:57.721Z,0.14
2022-12-08T02:38:46.480Z,0.14
2022-12-08T02:41:38.072Z,0.11
2022-12-08T02:44:42.313Z,0.09
2022-12-08T02:47:13.149Z,0.04
2022-12-08T02:49:40.542Z,-0.04
2022-12-08T02:52:12.031Z,-0.10
2022-12-08T02:54:41.312Z,-0.16
2022-12-08T02:57:32.817Z,-0.20
2022-12-08T03:00:08.400Z,-0.20
2022-12-08T03:03:02.547Z,-0.19
2022-12-08T03:06:00.442Z,-0.20
2022-12-08T03:08:48.821Z,-0.20
2022-12-08T03:11:20.500Z,-0.20
2022-12-08T03:13:51.783Z,-0.20
2022-12-08T03:16:38.381Z,-0.15
2022-12-08T03:19:20.092Z,-0.13
2022-12-08T03:21:53.993Z,-0.12
2022-12-08T03:24:22.683Z,-0.11
2022-12-08T03:26:53.409Z,-0.12
2022-12-08T03:29:20.806Z,-0.19
2022-12-08T03:31:55.220Z,-0.28
2022-12-08T03:34:25.458Z,-0.32
2022-12-08T03:36:52.427Z,-0.33
2022-12-08T03:39:19.488Z,-0.30
2022-12-08T03:41:47.388Z,-0.28
2022-12-08T03:44:14.291Z,-0.32
2022-12-08T03:46:41.454Z,-0.40
2022-12-08T03:49:08.371Z,-0.47
2022-12-08T03:51:35.385Z,-0.44
2022-12-08T03:54:02.296Z,-0.38
2022-12-08T03:56:36.535Z,-0.29
2022-12-08T03:59:04.168Z,-0.20
2022-12-08T04:01:31.225Z,-0.15
2022-12-08T04:03:58.265Z,-0.13
2022-12-08T04:06:25.291Z,-0.08
2022-12-08T04:08:52.746Z,-0.09
2022-12-08T04:11:20.065Z,-0.07
2022-12-08T04:13:47.692Z,-0.08
2022-12-08T04:16:19.952Z,-0.12
2022-12-08T04:18:47.347Z,-0.13
2022-12-08T04:21:14.426Z,-0.10
2022-12-08T04:23:41.742Z,-0.07
2022-12-08T04:26:08.666Z,-0.06
2022-12-08T04:28:36.301Z,-0.07
2022-12-08T04:31:03.795Z,-0.02
2022-12-08T04:33:31.048Z,0.00
2022-12-08T04:35:57.976Z,0.02
2022-12-08T04:38:25.123Z,0.04
2022-12-08T04:40:52.189Z,0.06
2022-12-08T04:43:19.225Z,0.07
2022-12-08T04:45:46.747Z,0.07
2022-12-08T04:48:13.980Z,0.06
2022-12-08T04:50:43.073Z,0.08
2022-12-08T04:53:11.619Z,0.04
2022-12-08T04:55:43.894Z,0.01
2022-12-08T04:58:15.568Z,-0.08
2022-12-08T05:00:43.045Z,-0.14
2022-12-08T05:03:10.303Z,-0.21
2022-12-08T05:05:37.440Z,-0.21
2022-12-08T05:08:05.383Z,-0.17
2022-12-08T05:10:32.790Z,-0.15
2022-12-08T05:13:01.279Z,-0.13
2022-12-08T05:15:28.440Z,-0.09
2022-12-08T05:17:55.648Z,-0.07
2022-12-08T05:20:22.999Z,-0.04
2022-12-08T05:22:50.079Z,-0.01
2022-12-08T05:25:17.214Z,0.00
2022-12-08T05:27:44.259Z,0.02
2022-12-08T05:30:11.709Z,0.02
2022-12-08T05:32:38.930Z,-0.04
2022-12-08T05:35:06.740Z,-0.12
2022-12-08T05:37:33.928Z,-0.19
2022-12-08T05:40:01.108Z,-0.26
2022-12-08T05:42:28.412Z,-0.35
2022-12-08T05:44:55.439Z,-0.38
2022-12-08T05:47:22.398Z,-0.36
2022-12-08T05:49:49.425Z,-0.28
2022-12-08T05:52:17.079Z,-0.22
2022-12-08T05:54:44.367Z,-0.15
2022-12-08T05:57:11.559Z,-0.19
2022-12-08T05:59:39.440Z,-0.30
2022-12-08T06:02:06.654Z,-0.42
2022-12-08T06:04:33.907Z,-0.50
2022-12-08T06:07:00.815Z,-0.55
2022-12-08T06:09:27.816Z,-0.59
2022-12-08T06:11:55.010Z,-0.60
2022-12-08T06:14:21.931Z,-0.65
2022-12-08T06:16:49.119Z,-0.69
2022-12-08T06:19:16.411Z,-0.71
2022-12-08T06:21:43.443Z,-0.66
2022-12-08T06:24:10.334Z,-0.54
2022-12-08T06:26:37.454Z,-0.44
2022-12-08T06:29:05.129Z,-0.35
2022-12-08T06:31:32.127Z,-0.27
2022-12-08T06:33:59.275Z,-0.18
2022-12-08T06:36:32.189Z,-0.14
2022-12-08T06:39:00.024Z,-0.11
2022-12-08T06:41:27.161Z,-0.09
2022-12-08T06:43:57.327Z,-0.06
2022-12-08T06:46:24.757Z,-0.06
2022-12-08T06:48:51.877Z,-0.06
2022-12-08T06:51:20.846Z,-0.07
2022-12-08T06:53:47.939Z,-0.05
2022-12-08T06:56:16.007Z,-0.04
2022-12-08T06:58:46.136Z,-0.05
2022-12-08T07:01:15.919Z,-0.05
2022-12-08T07:03:43.920Z,-0.04
2022-12-08T07:06:20.839Z,-0.06
2022-12-08T07:08:47.938Z,-0.07
2022-12-08T07:11:19.776Z,-0.12
2022-12-08T07:13:48.575Z,-0.18
2022-12-08T07:16:15.665Z,-0.21
2022-12-08T07:18:44.133Z,-0.25
2022-12-08T07:21:14.949Z,-0.28
2022-12-08T07:23:42.719Z,-0.32
2022-12-08T07:26:11.999Z,-0.41
2022-12-08T07:28:40.363Z,-0.50
2022-12-08T07:31:08.760Z,-0.60
2022-12-08T07:33:36.233Z,-0.67
2022-12-08T07:36:05.858Z,-0.74
2022-12-08T07:38:33.010Z,-0.77
2022-12-08T07:41:00.074Z,-0.78
2022-12-08T07:43:27.110Z,-0.78
2022-12-08T07:45:54.248Z,-0.82
2022-12-08T07:48:21.304Z,-0.79
2022-12-08T07:50:48.753Z,-0.76
2022-12-08T07:53:15.759Z,-0.73
2022-12-08T07:55:43.528Z,-0.69
2022-12-08T07:58:11.147Z,-0.67
2022-12-08T08:00:38.279Z,-0.70
2022-12-08T08:03:06.247Z,-0.74
2022-12-08T08:05:33.453Z,-0.74
2022-12-08T08:08:00.535Z,-0.71
2022-12-08T08:10:27.769Z,-0.63
2022-12-08T08:12:54.850Z,-0.56
2022-12-08T08:15:22.095Z,-0.49
2022-12-08T08:17:51.766Z,-0.48
2022-12-08T08:20:19.906Z,-0.49
2022-12-08T08:22:48.307Z,-0.48
2022-12-08T08:25:17.689Z,-0.48
2022-12-08T08:27:45.660Z,-0.47
2022-12-08T08:30:19.645Z,-0.45
2022-12-08T08:32:49.103Z,-0.47
2022-12-08T08:35:18.689Z,-0.49
2022-12-08T08:37:49.068Z,-0.51
2022-12-08T08:40:18.061Z,-0.52
2022-12-08T08:42:45.302Z,-0.55
2022-12-08T08:45:12.581Z,-0.56
2022-12-08T08:47:39.945Z,-0.52
2022-12-08T08:50:08.204Z,-0.46
2022-12-08T08:52:35.781Z,-0.38
2022-12-08T08:55:04.072Z,-0.36
2022-12-08T08:57:31.209Z,-0.31
2022-12-08T08:59:59.470Z,-0.29
2022-12-08T09:02:27.412Z,-0.26
2022-12-08T09:04:54.627Z,-0.24
2022-12-08T09:07:21.972Z,-0.20
2022-12-08T09:09:53.881Z,-0.18
2022-12-08T09:12:24.230Z,-0.17
2022-12-08T09:14:51.376Z,-0.15
2022-12-08T09:17:18.537Z,-0.14
2022-12-08T09:19:46.599Z,-0.10
2022-12-08T09:22:15.100Z,-0.07
2022-12-08T09:24:42.322Z,-0.02
2022-12-08T09:27:09.484Z,0.04
2022-12-08T09:29:37.783Z,0.10
2022-12-08T09:32:05.194Z,0.12
2022-12-08T09:34:32.233Z,0.11
2022-12-08T09:36:59.760Z,0.05
2022-12-08T09:39:28.303Z,0.03
2022-12-08T09:42:07.020Z,0.03
2022-12-08T09:44:38.140Z,0.06
2022-12-08T09:47:13.902Z,0.05
2022-12-08T09:50:05.542Z,0.04
2022-12-08T09:52:41.435Z,-0.01
2022-12-08T09:55:35.131Z,-0.02
2022-12-08T09:58:03.839Z,-0.05
2022-12-08T10:00:31.090Z,-0.07
2022-12-08T10:02:58.180Z,-0.05
2022-12-08T10:05:26.681Z,0.00
2022-12-08T10:08:04.502Z,0.05
2022-12-08T10:10:37.750Z,0.05
2022-12-08T10:13:34.972Z,0.05
2022-12-08T10:16:29.586Z,0.09
2022-12-08T10:19:24.302Z,0.12
2022-12-08T10:21:51.836Z,0.12
2022-12-08T10:24:37.521Z,0.12
2022-12-08T10:27:06.145Z,0.14
2022-12-08T10:29:35.920Z,0.18
2022-12-08T10:32:20.271Z,0.23
2022-12-08T10:35:09.091Z,0.27
2022-12-08T10:37:36.892Z,0.26
2022-12-08T10:40:12.094Z,0.29
2022-12-08T10:42:53.973Z,0.40
2022-12-08T10:45:27.041Z,0.47
2022-12-08T10:48:22.414Z,0.44
2022-12-08T10:51:03.799Z,0.44
2022-12-08T10:53:34.450Z,0.44
2022-12-08T10:56:04.271Z,0.38
2022-12-08T10:58:35.211Z,0.38
2022-12-08T11:01:04.948Z,0.48
2022-12-08T11:03:38.050Z,0.49
2022-12-08T11:06:18.289Z,0.52
2022-12-08T11:08:52.420Z,0.56
2022-12-08T11:11:25.848Z,0.60
2022-12-08T11:13:56.319Z,0.63
2022-12-08T11:16:23.378Z,0.65
2022-12-08T11:18:57.801Z,0.61
2022-12-08T11:21:36.103Z,0.66
2022-12-08T11:24:25.008Z,0.68
2022-12-08T11:26:59.932Z,0.66
2022-12-08T11:29:31.549Z,0.63
2022-12-08T11:32:12.953Z,0.57
2022-12-08T11:34:45.660Z,0.56
2022-12-08T11:37:40.398Z,0.56
2022-12-08T11:40:20.680Z,0.56
2022-12-08T11:42:56.940Z,0.56
2022-12-08T11:45:31.561Z,0.50
2022-12-08T11:47:58.858Z,0.50
2022-12-08T11:50:33.201Z,0.52
2022-12-08T11:53:01.752Z,0.52
2022-12-08T11:55:39.404Z,0.52
2022-12-08T11:58:25.436Z,0.57
2022-12-08T12:00:52.841Z,0.64
2022-12-08T12:03:30.094Z,0.71
2022-12-08T12:09:38.160Z,0.83
2022-12-08T12:12:39.942Z,0.75
2022-12-08T12:15:07.279Z,0.70
2022-12-08T12:17:43.921Z,0.63
2022-12-08T12:20:20.523Z,0.55
2022-12-08T12:22:53.227Z,0.48
2022-12-08T12:25:23.946Z,0.41
2022-12-08T12:27:57.224Z,0.32
2022-12-08T12:30:27.654Z,0.26
2022-12-08T12:33:01.218Z,0.23
2022-12-08T12:35:39.010Z,0.22
2022-12-08T12:38:52.132Z,0.15
2022-12-08T12:41:25.553Z,0.19
2022-12-08T12:44:15.286Z,0.16
2022-12-08T12:46:53.609Z,0.16
2022-12-08T12:49:39.527Z,0.19
2022-12-08T12:52:19.822Z,0.14
2022-12-08T12:54:50.032Z,0.09
2022-12-08T12:57:20.431Z,0.05
2022-12-08T12:59:55.790Z,0.02
2022-12-08T13:02:32.307Z,-0.01
2022-12-08T13:05:20.374Z,-0.01
2022-12-08T13:08:07.181Z,-0.01
2022-12-08T13:10:40.369Z,0.01
2022-12-08T13:13:10.227Z,0.03
2022-12-08T13:15:39.594Z,0.06
2022-12-08T13:18:08.098Z,0.09
2022-12-08T13:20:42.792Z,0.12
2022-12-08T13:23:26.754Z,0.08
2022-12-08T13:26:09.838Z,0.13
2022-12-08T13:29:03.937Z,0.12
2022-12-08T13:31:51.992Z,0.12
2022-12-08T13:34:33.300Z,0.12
2022-12-08T13:37:48.128Z,0.11
2022-12-08T13:40:24.685Z,0.11
2022-12-08T13:43:06.711Z,0.12
2022-12-08T13:49:45.361Z,0.12
2022-12-08T13:57:25.121Z,0.04
2022-12-08T13:59:52.259Z,0.04
2022-12-08T14:02:33.440Z,0.02
2022-12-08T14:05:23.597Z,-0.01
2022-12-08T14:07:50.179Z,-0.01
2022-12-08T14:10:24.370Z,-0.01
2022-12-08T14:13:00.883Z,-0.01
2022-12-08T14:15:35.515Z,-0.01
2022-12-08T14:18:04.140Z,-0.03
2022-12-08T14:20:57.973Z,-0.07
2022-12-08T14:23:22.682Z,-0.04
2022-12-08T14:25:49.827Z,-0.04
2022-12-08T14:28:16.947Z,-0.05
2022-12-08T14:30:44.212Z,-0.10
2022-12-08T14:33:17.014Z,-0.12
2022-12-08T14:35:50.975Z,-0.14
2022-12-08T14:38:19.828Z,-0.14
2022-12-08T14:41:06.868Z,-0.16
2022-12-08T14:43:34.336Z,-0.18
2022-12-08T14:46:04.055Z,-0.17
2022-12-08T14:48:30.984Z,-0.17
2022-12-08T14:51:04.181Z,-0.16
2022-12-08T14:53:49.745Z,-0.17
2022-12-08T14:56:23.623Z,-0.18
2022-12-08T14:59:03.298Z,-0.16
2022-12-08T15:01:30.797Z,-0.17
2022-12-08T15:04:03.508Z,-0.17
2022-12-08T15:06:30.520Z,-0.18
2022-12-08T15:08:59.516Z,-0.20
2022-12-08T15:11:34.876Z,-0.22
2022-12-08T15:14:02.225Z,-0.23
2022-12-08T15:16:39.758Z,-0.29
2022-12-08T15:19:21.493Z,-0.31
2022-12-08T15:21:48.651Z,-0.33
2022-12-08T15:24:16.901Z,-0.39
2022-12-08T15:26:48.932Z,-0.41
2022-12-08T15:29:34.321Z,-0.40
2022-12-08T15:32:02.267Z,-0.39
2022-12-08T15:34:29.251Z,-0.38
2022-12-08T15:36:56.168Z,-0.37
2022-12-08T15:39:37.502Z,-0.37
2022-12-08T15:42:11.483Z,-0.36
2022-12-08T15:44:38.740Z,-0.38
2022-12-08T15:47:06.214Z,-0.40
2022-12-08T15:49:33.310Z,-0.38
2022-12-08T15:52:11.171Z,-0.36
2022-12-08T15:54:38.848Z,-0.30
2022-12-08T15:57:43.697Z,-0.29
2022-12-08T15:59:53.487Z,-0.25
2022-12-08T16:02:22.755Z,-0.27
2022-12-08T16:07:38.459Z,-0.31
2022-12-08T16:10:07.493Z,-0.32
2022-12-08T16:15:59.384Z,-0.27
2022-12-08T16:18:35.184Z,-0.24
2022-12-08T16:21:12.388Z,-0.18
2022-12-08T16:23:49.649Z,-0.15
2022-12-08T16:27:13.913Z,-0.14
2022-12-08T16:29:08.756Z,-0.15
2022-12-08T16:31:36.022Z,-0.13
2022-12-08T16:34:03.053Z,-0.16
2022-12-08T16:36:30.159Z,-0.11
2022-12-08T16:38:57.252Z,-0.07
2022-12-08T16:41:42.700Z,-0.09
2022-12-08T16:44:09.961Z,-0.07
2022-12-08T16:46:37.381Z,-0.04
2022-12-08T16:49:05.047Z,-0.03
2022-12-08T16:51:31.924Z,-0.03
2022-12-08T16:53:58.981Z,-0.02
2022-12-08T16:56:32.591Z,-0.04
2022-12-08T16:59:00.399Z,-0.07
2022-12-08T17:01:27.521Z,-0.11
2022-12-08T17:04:29.911Z,-0.10
2022-12-08T17:06:41.562Z,-0.06
2022-12-08T17:09:08.700Z,-0.10
2022-12-08T17:11:40.972Z,-0.10
2022-12-08T17:14:10.508Z,-0.15
2022-12-08T17:16:37.615Z,-0.17
2022-12-08T17:19:04.855Z,-0.17
2022-12-08T17:21:32.380Z,-0.24
2022-12-08T17:23:59.486Z,-0.27
2022-12-08T17:26:26.545Z,-0.22
2022-12-08T17:29:01.654Z,-0.16
2022-12-08T17:31:31.753Z,-0.08
2022-12-08T17:34:00.947Z,-0.09
2022-12-08T17:36:28.122Z,-0.09
2022-12-08T17:38:55.937Z,-0.11
2022-12-08T17:41:22.945Z,-0.12
2022-12-08T17:43:49.905Z,-0.15
2022-12-08T17:46:21.276Z,-0.19
2022-12-08T17:48:48.752Z,-0.24
2022-12-08T17:51:16.239Z,-0.29
2022-12-08T17:53:43.789Z,-0.29
2022-12-08T17:56:22.781Z,-0.28
2022-12-08T17:58:54.651Z,-0.27
2022-12-08T18:01:23.480Z,-0.24
2022-12-08T18:03:51.506Z,-0.21
2022-12-08T18:06:18.465Z,-0.24
2022-12-08T18:08:45.571Z,-0.21
2022-12-08T18:11:15.200Z,-0.17
2022-12-08T18:13:42.360Z,-0.11
2022-12-08T18:16:09.418Z,-0.07
2022-12-08T18:18:36.451Z,-0.05
2022-12-08T18:21:06.646Z,-0.02
2022-12-08T18:23:39.068Z,0.02
2022-12-08T18:26:10.089Z,0.01
2022-12-08T18:28:39.042Z,0.01
2022-12-08T18:31:17.341Z,-0.01
2022-12-08T18:33:47.497Z,-0.01
2022-12-08T18:36:18.544Z,-0.05
2022-12-08T18:38:45.950Z,-0.04
2022-12-08T18:41:20.055Z,-0.03
2022-12-08T18:43:47.421Z,-0.05
2022-12-08T18:46:15.294Z,-0.06
2022-12-08T18:48:53.194Z,-0.07
2022-12-08T18:51:22.607Z,-0.06
2022-12-08T18:53:51.933Z,-0.03
2022-12-08T18:56:32.494Z,-0.02
2022-12-08T18:59:04.628Z,0.05
2022-12-08T19:01:34.276Z,0.05
2022-12-08T19:06:50.605Z,0.03
2022-12-08T19:09:18.120Z,0.04
2022-12-08T19:11:46.079Z,0.05
2022-12-08T19:14:13.142Z,0.10
2022-12-08T19:16:40.691Z,0.11
2022-12-08T19:19:08.585Z,0.14
2022-12-08T19:21:39.121Z,0.13
2022-12-08T19:24:10.045Z,0.12
2022-12-08T19:26:39.432Z,0.13
2022-12-08T19:29:07.788Z,0.17
2022-12-08T19:31:35.474Z,0.18
2022-12-08T19:34:13.850Z,0.18
2022-12-08T19:36:43.951Z,0.14
2022-12-08T19:39:34.977Z,0.10
2022-12-08T19:42:20.886Z,0.02
2022-12-08T19:44:53.894Z,-0.06
2022-12-08T19:47:22.849Z,-0.15
2022-12-08T19:49:50.014Z,-0.21
2022-12-08T19:52:17.571Z,-0.27
2022-12-08T19:54:44.820Z,-0.32
2022-12-08T19:57:11.964Z,-0.38
2022-12-08T19:59:39.504Z,-0.52
2022-12-08T20:02:06.867Z,-0.68
2022-12-08T20:04:33.987Z,-0.83
2022-12-08T20:07:00.997Z,-0.96
2022-12-08T20:09:28.175Z,-1.14
2022-12-08T20:11:55.233Z,-1.29
2022-12-08T20:14:23.277Z,-1.44
2022-12-08T20:16:51.001Z,-1.59
2022-12-08T20:19:19.273Z,-1.69
2022-12-08T20:21:47.702Z,-1.72
2022-12-08T20:24:17.213Z,-1.75
2022-12-08T20:26:46.893Z,-1.77
2022-12-08T20:29:20.668Z,-1.75
2022-12-08T20:31:50.107Z,-1.73
2022-12-08T20:34:19.811Z,-1.73
2022-12-08T20:36:47.369Z,-1.70
2022-12-08T20:39:20.571Z,-1.72
2022-12-08T20:41:49.213Z,-1.76
2022-12-08T20:44:16.358Z,-1.82
2022-12-08T20:46:49.048Z,-1.86
2022-12-08T20:49:18.183Z,-1.96
2022-12-08T20:51:45.289Z,-2.04
2022-12-08T20:54:12.499Z,-2.14
2022-12-08T20:56:46.500Z,-2.21
2022-12-08T20:59:18.308Z,-2.26
2022-12-08T21:01:45.573Z,-2.36
2022-12-08T21:04:13.532Z,-2.44
2022-12-08T21:06:40.656Z,-2.49
2022-12-08T21:09:07.790Z,-2.52
2022-12-08T21:11:35.905Z,-2.46
2022-12-08T21:14:03.571Z,-2.39
2022-12-08T21:16:30.683Z,-2.31
2022-12-08T21:18:57.645Z,-2.23
2022-12-08T21:21:25.133Z,-2.22
2022-12-08T21:23:52.635Z,-2.21
2022-12-08T21:26:22.079Z,-2.19
2022-12-08T21:28:49.195Z,-2.14
2022-12-08T21:31:19.235Z,-2.09
2022-12-08T21:33:46.712Z,-2.02
2022-12-08T21:36:16.178Z,-2.00
2022-12-08T21:38:44.251Z,-1.95
2022-12-08T21:41:38.369Z,-1.91
2022-12-08T21:44:06.949Z,-1.92
2022-12-08T21:46:34.198Z,-1.92
2022-12-08T21:49:01.820Z,-1.89
2022-12-08T21:51:29.214Z,-1.83
2022-12-08T21:53:56.426Z,-1.80
2022-12-08T21:56:23.530Z,-1.76
2022-12-08T21:58:51.007Z,-1.78
2022-12-08T22:01:18.132Z,-1.80
2022-12-08T22:03:45.496Z,-1.82
2022-12-08T22:06:13.866Z,-1.88
2022-12-08T22:08:41.765Z,-1.94
2022-12-08T22:11:11.144Z,-1.93
2022-12-08T22:13:39.842Z,-1.92
2022-12-08T22:16:09.476Z,-1.93
2022-12-08T22:18:37.148Z,-1.94
2022-12-08T22:21:09.770Z,-1.96
2022-12-08T22:23:50.147Z,-1.98
2022-12-08T22:26:17.439Z,-1.99
2022-12-08T22:28:45.216Z,-1.99
2022-12-08T22:31:17.817Z,-2.00
2022-12-08T22:33:44.903Z,-1.94
2022-12-08T22:36:17.407Z,-1.88
2022-12-08T22:38:44.470Z,-1.85
2022-12-08T22:41:11.531Z,-1.90
2022-12-08T22:43:38.684Z,-1.92
2022-12-08T22:46:12.261Z,-1.94
2022-12-08T22:48:39.729Z,-1.93
2022-12-08T22:51:07.011Z,-1.96
2022-12-08T22:53:34.156Z,-1.99
2022-12-08T22:56:04.877Z,-1.98
2022-12-08T22:58:31.932Z,-1.97
2022-12-08T23:00:58.836Z,-1.99
2022-12-08T23:03:25.976Z,-1.98
2022-12-08T23:05:53.108Z,-2.01
2022-12-08T23:08:20.598Z,-2.01
2022-12-08T23:10:48.440Z,-2.02
2022-12-08T23:13:15.398Z,-2.07
2022-12-08T23:15:42.372Z,-2.16
2022-12-08T23:18:14.387Z,-2.23
2022-12-08T23:20:41.807Z,-2.16
2022-12-08T23:23:08.962Z,-2.08
2022-12-08T23:25:40.460Z,-2.08
2022-12-08T23:28:09.021Z,-2.13
2022-12-08T23:30:36.664Z,-2.21
2022-12-08T23:33:03.948Z,-2.27
2022-12-08T23:35:31.160Z,-2.27
2022-12-08T23:37:58.516Z,-2.30
2022-12-08T23:40:25.647Z,-2.33
2022-12-08T23:42:52.675Z,-2.29
2022-12-08T23:45:19.727Z,-2.24
2022-12-08T23:47:46.811Z,-2.27
2022-12-08T23:50:14.055Z,-2.29
2022-12-08T23:52:41.220Z,-2.27
2022-12-08T23:55:09.068Z,-2.29
2022-12-08T23:57:36.817Z,-2.26
